sensor_id;sensor_type;location;lat;lon;timestamp;pressure;altitude;pressure_sealevel;temperature;humidity
52975;BME280;38839;45.186;5.720;2023-01-16T00:01:10;98672.84;;;4.30;84.69
52975;BME280;38839;45.186;5.720;2023-01-16T00:03:35;98665.94;;;4.29;85.17
52975;BME280;38839;45.186;5.720;2023-01-16T00:06:01;98658.88;;;4.17;85.27
52975;BME280;38839;45.186;5.720;2023-01-16T00:08:26;98663.94;;;4.10;85.40
52975;BME280;38839;45.186;5.720;2023-01-16T00:10:51;98659.56;;;4.04;85.85
52975;BME280;38839;45.186;5.720;2023-01-16T00:13:17;98646.56;;;3.99;86.04
52975;BME280;38839;45.186;5.720;2023-01-16T00:15:50;98637.84;;;3.91;86.37
52975;BME280;38839;45.186;5.720;2023-01-16T00:18:16;98641.31;;;3.93;86.40
52975;BME280;38839;45.186;5.720;2023-01-16T00:20:42;98641.22;;;3.87;86.61
52975;BME280;38839;45.186;5.720;2023-01-16T00:23:08;98637.06;;;3.95;86.70
52975;BME280;38839;45.186;5.720;2023-01-16T00:25:38;98634.75;;;4.12;86.21
52975;BME280;38839;45.186;5.720;2023-01-16T00:28:04;98619.03;;;3.98;86.94
52975;BME280;38839;45.186;5.720;2023-01-16T00:30:30;98609.69;;;4.07;86.24
52975;BME280;38839;45.186;5.720;2023-01-16T00:32:55;98603.81;;;4.17;86.00
52975;BME280;38839;45.186;5.720;2023-01-16T00:35:20;98592.72;;;4.22;85.46
52975;BME280;38839;45.186;5.720;2023-01-16T00:37:46;98601.69;;;3.88;86.57
52975;BME280;38839;45.186;5.720;2023-01-16T00:40:11;98585.16;;;3.75;87.75
52975;BME280;38839;45.186;5.720;2023-01-16T00:42:37;98580.69;;;3.63;87.88
52975;BME280;38839;45.186;5.720;2023-01-16T00:45:02;98571.78;;;3.43;88.77
52975;BME280;38839;45.186;5.720;2023-01-16T00:47:28;98567.22;;;3.27;89.70
52975;BME280;38839;45.186;5.720;2023-01-16T00:49:53;98566.47;;;3.35;89.43
52975;BME280;38839;45.186;5.720;2023-01-16T00:52:18;98567.53;;;3.47;89.29
52975;BME280;38839;45.186;5.720;2023-01-16T00:54:44;98551.25;;;3.52;89.27
52975;BME280;38839;45.186;5.720;2023-01-16T00:57:09;98552.16;;;3.54;89.20
52975;BME280;38839;45.186;5.720;2023-01-16T00:59:34;98543.63;;;3.58;89.27
52975;BME280;38839;45.186;5.720;2023-01-16T01:02:00;98533.38;;;3.61;89.14
52975;BME280;38839;45.186;5.720;2023-01-16T01:04:25;98534.22;;;3.62;88.98
52975;BME280;38839;45.186;5.720;2023-01-16T01:06:52;98537.72;;;3.66;88.90
52975;BME280;38839;45.186;5.720;2023-01-16T01:09:17;98526.63;;;3.71;88.75
52975;BME280;38839;45.186;5.720;2023-01-16T01:11:43;98527.41;;;3.66;88.54
52975;BME280;38839;45.186;5.720;2023-01-16T01:14:08;98518.72;;;3.60;88.34
52975;BME280;38839;45.186;5.720;2023-01-16T01:16:34;98506.53;;;3.50;89.16
52975;BME280;38839;45.186;5.720;2023-01-16T01:18:59;98509.13;;;3.50;89.34
52975;BME280;38839;45.186;5.720;2023-01-16T01:21:24;98508.47;;;3.63;89.11
52975;BME280;38839;45.186;5.720;2023-01-16T01:23:50;98494.84;;;3.74;88.67
52975;BME280;38839;45.186;5.720;2023-01-16T01:26:16;98496.63;;;3.78;88.80
52975;BME280;38839;45.186;5.720;2023-01-16T01:28:42;98488.94;;;3.82;88.19
52975;BME280;38839;45.186;5.720;2023-01-16T01:31:12;98495.03;;;3.89;88.13
52975;BME280;38839;45.186;5.720;2023-01-16T01:33:38;98487.41;;;3.98;87.83
52975;BME280;38839;45.186;5.720;2023-01-16T01:36:05;98477.84;;;3.91;87.67
52975;BME280;38839;45.186;5.720;2023-01-16T01:38:32;98473.97;;;3.58;88.00
52975;BME280;38839;45.186;5.720;2023-01-16T01:40:57;98474.41;;;3.27;89.56
52975;BME280;38839;45.186;5.720;2023-01-16T01:43:39;98475.00;;;3.10;90.33
52975;BME280;38839;45.186;5.720;2023-01-16T01:46:04;98482.50;;;2.96;90.11
52975;BME280;38839;45.186;5.720;2023-01-16T01:48:37;98470.50;;;2.97;90.65
52975;BME280;38839;45.186;5.720;2023-01-16T01:51:07;98471.88;;;2.76;91.17
52975;BME280;38839;45.186;5.720;2023-01-16T01:53:46;98459.06;;;2.79;91.86
52975;BME280;38839;45.186;5.720;2023-01-16T01:56:30;98449.00;;;2.95;91.22
52975;BME280;38839;45.186;5.720;2023-01-16T01:59:02;98426.19;;;3.21;90.69
52975;BME280;38839;45.186;5.720;2023-01-16T02:01:29;98408.03;;;3.13;89.99
52975;BME280;38839;45.186;5.720;2023-01-16T02:04:02;98411.84;;;3.40;89.71
52975;BME280;38839;45.186;5.720;2023-01-16T02:06:35;98415.06;;;3.23;89.58
52975;BME280;38839;45.186;5.720;2023-01-16T02:09:03;98409.09;;;3.26;89.17
52975;BME280;38839;45.186;5.720;2023-01-16T02:11:40;98403.03;;;3.22;89.89
52975;BME280;38839;45.186;5.720;2023-01-16T02:14:10;98390.28;;;3.33;89.37
52975;BME280;38839;45.186;5.720;2023-01-16T02:16:37;98400.81;;;2.91;89.84
52975;BME280;38839;45.186;5.720;2023-01-16T02:33:09;98333.88;;;2.92;90.94
52975;BME280;38839;45.186;5.720;2023-01-16T02:46:36;98297.13;;;3.06;89.58
52975;BME280;38839;45.186;5.720;2023-01-16T02:49:19;98303.19;;;3.09;88.96
52975;BME280;38839;45.186;5.720;2023-01-16T02:52:03;98284.75;;;2.80;89.30
52975;BME280;38839;45.186;5.720;2023-01-16T02:54:38;98271.53;;;2.55;90.38
52975;BME280;38839;45.186;5.720;2023-01-16T02:57:11;98256.69;;;2.37;91.63
52975;BME280;38839;45.186;5.720;2023-01-16T02:59:40;98252.34;;;2.35;92.15
52975;BME280;38839;45.186;5.720;2023-01-16T03:02:06;98251.25;;;2.19;92.46
52975;BME280;38839;45.186;5.720;2023-01-16T03:04:51;98250.66;;;2.34;92.85
52975;BME280;38839;45.186;5.720;2023-01-16T03:07:56;98230.09;;;2.38;92.64
52975;BME280;38839;45.186;5.720;2023-01-16T03:10:48;98224.97;;;2.38;92.46
52975;BME280;38839;45.186;5.720;2023-01-16T03:19:55;98190.44;;;2.24;91.72
52975;BME280;38839;45.186;5.720;2023-01-16T03:22:38;98175.31;;;1.88;93.37
52975;BME280;38839;45.186;5.720;2023-01-16T03:25:26;98167.94;;;2.09;93.25
52975;BME280;38839;45.186;5.720;2023-01-16T03:28:04;98159.28;;;2.06;93.59
52975;BME280;38839;45.186;5.720;2023-01-16T03:33:22;98130.44;;;2.28;91.76
52975;BME280;38839;45.186;5.720;2023-01-16T03:35:56;98130.47;;;2.31;91.48
52975;BME280;38839;45.186;5.720;2023-01-16T03:38:24;98121.13;;;2.39;91.14
52975;BME280;38839;45.186;5.720;2023-01-16T03:40:52;98114.41;;;2.49;90.62
52975;BME280;38839;45.186;5.720;2023-01-16T03:46:01;98080.78;;;2.35;90.56
52975;BME280;38839;45.186;5.720;2023-01-16T03:48:37;98078.78;;;2.13;91.20
52975;BME280;38839;45.186;5.720;2023-01-16T03:51:08;98068.38;;;2.04;91.87
52975;BME280;38839;45.186;5.720;2023-01-16T03:56:35;98058.81;;;1.93;92.52
52975;BME280;38839;45.186;5.720;2023-01-16T03:59:02;98048.38;;;1.83;92.08
52975;BME280;38839;45.186;5.720;2023-01-16T04:04:08;98023.59;;;1.89;92.46
52975;BME280;38839;45.186;5.720;2023-01-16T04:07:11;98011.66;;;1.94;91.86
52975;BME280;38839;45.186;5.720;2023-01-16T04:09:57;98012.31;;;1.79;92.24
52975;BME280;38839;45.186;5.720;2023-01-16T04:12:28;97998.69;;;1.85;92.78
52975;BME280;38839;45.186;5.720;2023-01-16T04:14:59;97995.34;;;1.92;91.99
52975;BME280;38839;45.186;5.720;2023-01-16T04:17:26;97983.56;;;2.10;91.22
52975;BME280;38839;45.186;5.720;2023-01-16T04:19:51;97988.50;;;1.93;91.23
52975;BME280;38839;45.186;5.720;2023-01-16T04:22:22;97978.91;;;1.81;91.51
52975;BME280;38839;45.186;5.720;2023-01-16T04:24:49;97981.34;;;1.72;91.51
52975;BME280;38839;45.186;5.720;2023-01-16T04:27:17;97970.91;;;1.59;91.65
52975;BME280;38839;45.186;5.720;2023-01-16T04:29:43;97944.56;;;1.76;91.43
52975;BME280;38839;45.186;5.720;2023-01-16T04:32:08;97948.84;;;1.75;91.17
52975;BME280;38839;45.186;5.720;2023-01-16T04:34:33;97926.47;;;1.70;91.85
52975;BME280;38839;45.186;5.720;2023-01-16T04:36:59;97913.69;;;1.76;91.41
52975;BME280;38839;45.186;5.720;2023-01-16T04:39:24;97897.25;;;1.61;91.70
52975;BME280;38839;45.186;5.720;2023-01-16T04:41:49;97883.06;;;1.24;92.31
52975;BME280;38839;45.186;5.720;2023-01-16T04:44:16;97879.75;;;1.33;93.03
52975;BME280;38839;45.186;5.720;2023-01-16T04:46:42;97865.22;;;1.35;93.66
52975;BME280;38839;45.186;5.720;2023-01-16T04:49:08;97865.38;;;1.47;93.69
52975;BME280;38839;45.186;5.720;2023-01-16T04:51:34;97853.00;;;1.15;93.16
52975;BME280;38839;45.186;5.720;2023-01-16T04:54:00;97842.47;;;0.97;94.08
52975;BME280;38839;45.186;5.720;2023-01-16T04:56:25;97832.63;;;1.31;93.97
52975;BME280;38839;45.186;5.720;2023-01-16T04:58:50;97826.09;;;1.56;92.92
52975;BME280;38839;45.186;5.720;2023-01-16T05:01:18;97820.00;;;1.48;92.51
52975;BME280;38839;45.186;5.720;2023-01-16T05:03:43;97797.00;;;1.60;91.61
52975;BME280;38839;45.186;5.720;2023-01-16T05:06:08;97797.13;;;1.72;90.90
52975;BME280;38839;45.186;5.720;2023-01-16T05:08:34;97798.84;;;1.75;90.51
52975;BME280;38839;45.186;5.720;2023-01-16T05:10:59;97793.78;;;1.81;90.17
52975;BME280;38839;45.186;5.720;2023-01-16T05:13:27;97780.09;;;1.88;89.96
52975;BME280;38839;45.186;5.720;2023-01-16T05:15:52;97762.91;;;1.81;89.59
52975;BME280;38839;45.186;5.720;2023-01-16T05:18:18;97755.28;;;1.92;89.25
52975;BME280;38839;45.186;5.720;2023-01-16T05:20:43;97745.53;;;1.55;89.51
52975;BME280;38839;45.186;5.720;2023-01-16T05:23:09;97738.56;;;1.45;90.23
52975;BME280;38839;45.186;5.720;2023-01-16T05:25:36;97740.31;;;1.49;89.80
52975;BME280;38839;45.186;5.720;2023-01-16T05:28:01;97718.06;;;1.48;89.79
52975;BME280;38839;45.186;5.720;2023-01-16T05:30:27;97696.72;;;1.58;89.63
52975;BME280;38839;45.186;5.720;2023-01-16T05:32:52;97706.13;;;1.56;89.07
52975;BME280;38839;45.186;5.720;2023-01-16T05:35:18;97695.00;;;1.59;89.04
52975;BME280;38839;45.186;5.720;2023-01-16T05:37:45;97690.78;;;1.67;88.80
52975;BME280;38839;45.186;5.720;2023-01-16T05:40:10;97684.00;;;1.74;88.91
52975;BME280;38839;45.186;5.720;2023-01-16T05:42:36;97689.69;;;1.40;89.49
52975;BME280;38839;45.186;5.720;2023-01-16T05:45:02;97687.31;;;1.60;89.57
52975;BME280;38839;45.186;5.720;2023-01-16T05:47:28;97689.06;;;1.63;89.22
52975;BME280;38839;45.186;5.720;2023-01-16T05:49:53;97691.81;;;1.86;88.40
52975;BME280;38839;45.186;5.720;2023-01-16T05:52:19;97692.53;;;1.71;88.43
52975;BME280;38839;45.186;5.720;2023-01-16T05:54:44;97690.03;;;1.79;88.41
52975;BME280;38839;45.186;5.720;2023-01-16T05:57:10;97675.28;;;1.55;88.76
52975;BME280;38839;45.186;5.720;2023-01-16T05:59:36;97666.78;;;1.64;88.35
52975;BME280;38839;45.186;5.720;2023-01-16T06:02:01;97660.09;;;1.86;87.64
52975;BME280;38839;45.186;5.720;2023-01-16T06:04:26;97641.38;;;2.04;86.96
52975;BME280;38839;45.186;5.720;2023-01-16T06:06:52;97661.47;;;1.42;88.00
52975;BME280;38839;45.186;5.720;2023-01-16T06:09:18;97666.66;;;1.48;89.32
52975;BME280;38839;45.186;5.720;2023-01-16T06:11:43;97664.13;;;1.53;89.24
52975;BME280;38839;45.186;5.720;2023-01-16T06:14:09;97660.66;;;1.49;89.02
52975;BME280;38839;45.186;5.720;2023-01-16T06:16:34;97658.22;;;1.65;88.37
52975;BME280;38839;45.186;5.720;2023-01-16T06:19:00;97646.19;;;1.64;88.46
52975;BME280;38839;45.186;5.720;2023-01-16T06:21:26;97642.13;;;1.92;87.65
52975;BME280;38839;45.186;5.720;2023-01-16T06:23:51;97639.69;;;2.15;86.38
52975;BME280;38839;45.186;5.720;2023-01-16T06:26:17;97638.91;;;2.27;85.70
52975;BME280;38839;45.186;5.720;2023-01-16T06:28:49;97626.09;;;2.34;85.34
52975;BME280;38839;45.186;5.720;2023-01-16T06:31:15;97629.59;;;2.49;84.40
52975;BME280;38839;45.186;5.720;2023-01-16T06:33:40;97627.06;;;2.64;83.75
52975;BME280;38839;45.186;5.720;2023-01-16T06:36:06;97626.28;;;2.87;83.03
52975;BME280;38839;45.186;5.720;2023-01-16T06:38:31;97623.69;;;2.73;83.03
52975;BME280;38839;45.186;5.720;2023-01-16T06:40:56;97624.56;;;2.89;83.14
52975;BME280;38839;45.186;5.720;2023-01-16T06:43:23;97638.38;;;3.06;82.23
52975;BME280;38839;45.186;5.720;2023-01-16T06:45:49;97626.31;;;2.96;81.55
52975;BME280;38839;45.186;5.720;2023-01-16T06:48:14;97603.88;;;2.55;82.86
52975;BME280;38839;45.186;5.720;2023-01-16T06:50:39;97634.00;;;2.82;81.82
52975;BME280;38839;45.186;5.720;2023-01-16T06:53:05;97638.31;;;2.88;82.64
52975;BME280;38839;45.186;5.720;2023-01-16T06:55:30;97622.88;;;2.94;82.37
52975;BME280;38839;45.186;5.720;2023-01-16T06:57:56;97617.69;;;2.75;82.04
52975;BME280;38839;45.186;5.720;2023-01-16T07:00:21;97636.44;;;2.50;83.72
52975;BME280;38839;45.186;5.720;2023-01-16T07:02:54;97624.44;;;2.52;84.15
52975;BME280;38839;45.186;5.720;2023-01-16T07:05:25;97630.59;;;2.91;83.61
52975;BME280;38839;45.186;5.720;2023-01-16T07:07:51;97624.59;;;3.01;82.66
52975;BME280;38839;45.186;5.720;2023-01-16T07:10:17;97619.47;;;3.06;81.88
52975;BME280;38839;45.186;5.720;2023-01-16T07:12:45;97621.13;;;2.87;82.88
52975;BME280;38839;45.186;5.720;2023-01-16T07:15:10;97610.88;;;3.02;83.19
52975;BME280;38839;45.186;5.720;2023-01-16T07:17:54;97614.34;;;3.26;82.33
52975;BME280;38839;45.186;5.720;2023-01-16T07:20:38;97609.16;;;3.13;81.90
52975;BME280;38839;45.186;5.720;2023-01-16T07:23:26;97596.31;;;3.52;81.40
52975;BME280;38839;45.186;5.720;2023-01-16T07:25:55;97590.28;;;3.73;80.67
52975;BME280;38839;45.186;5.720;2023-01-16T07:28:21;97593.72;;;3.81;80.10
52975;BME280;38839;45.186;5.720;2023-01-16T07:30:48;97597.97;;;3.99;80.02
52975;BME280;38839;45.186;5.720;2023-01-16T07:33:14;97599.75;;;3.88;80.13
52975;BME280;38839;45.186;5.720;2023-01-16T07:35:40;97593.69;;;3.99;79.95
52975;BME280;38839;45.186;5.720;2023-01-16T07:38:05;97599.72;;;3.89;79.44
52975;BME280;38839;45.186;5.720;2023-01-16T07:40:31;97606.59;;;3.93;79.09
52975;BME280;38839;45.186;5.720;2023-01-16T07:42:56;97608.28;;;4.19;79.04
52975;BME280;38839;45.186;5.720;2023-01-16T07:45:22;97598.75;;;4.35;78.12
52975;BME280;38839;45.186;5.720;2023-01-16T07:47:47;97596.97;;;4.44;77.84
52975;BME280;38839;45.186;5.720;2023-01-16T07:50:12;97589.09;;;4.80;76.52
52975;BME280;38839;45.186;5.720;2023-01-16T07:52:38;97595.81;;;5.04;74.83
52975;BME280;38839;45.186;5.720;2023-01-16T07:55:04;97587.06;;;5.31;74.60
52975;BME280;38839;45.186;5.720;2023-01-16T07:57:29;97568.84;;;5.42;73.17
52975;BME280;38839;45.186;5.720;2023-01-16T07:59:55;97573.88;;;5.57;72.97
52975;BME280;38839;45.186;5.720;2023-01-16T08:02:20;97577.16;;;5.79;72.91
52975;BME280;38839;45.186;5.720;2023-01-16T08:04:46;97577.94;;;5.86;72.29
52975;BME280;38839;45.186;5.720;2023-01-16T08:07:11;97564.72;;;6.17;71.92
52975;BME280;38839;45.186;5.720;2023-01-16T08:09:37;97540.34;;;6.33;71.60
52975;BME280;38839;45.186;5.720;2023-01-16T08:12:02;97550.47;;;6.53;71.36
52975;BME280;38839;45.186;5.720;2023-01-16T08:14:28;97534.00;;;6.57;71.05
52975;BME280;38839;45.186;5.720;2023-01-16T08:16:53;97533.09;;;6.61;70.78
52975;BME280;38839;45.186;5.720;2023-01-16T08:19:19;97526.13;;;6.67;70.74
52975;BME280;38839;45.186;5.720;2023-01-16T08:21:44;97530.34;;;6.72;70.39
52975;BME280;38839;45.186;5.720;2023-01-16T08:24:10;97521.53;;;6.87;70.62
52975;BME280;38839;45.186;5.720;2023-01-16T08:26:38;97515.47;;;6.87;70.61
52975;BME280;38839;45.186;5.720;2023-01-16T08:29:03;97509.41;;;6.88;70.61
52975;BME280;38839;45.186;5.720;2023-01-16T08:31:29;97502.56;;;6.83;69.96
52975;BME280;38839;45.186;5.720;2023-01-16T08:33:55;97494.03;;;6.75;69.13
52975;BME280;38839;45.186;5.720;2023-01-16T08:36:21;97497.28;;;6.90;69.16
52975;BME280;38839;45.186;5.720;2023-01-16T08:38:49;97489.53;;;6.87;69.53
52975;BME280;38839;45.186;5.720;2023-01-16T08:41:15;97483.31;;;6.98;69.26
52975;BME280;38839;45.186;5.720;2023-01-16T08:43:59;97470.16;;;7.11;69.14
52975;BME280;38839;45.186;5.720;2023-01-16T08:46:49;97469.25;;;7.13;69.23
52975;BME280;38839;45.186;5.720;2023-01-16T08:49:35;97489.78;;;7.25;69.04
52975;BME280;38839;45.186;5.720;2023-01-16T08:52:19;97476.69;;;7.33;68.54
52975;BME280;38839;45.186;5.720;2023-01-16T08:54:44;97473.28;;;7.30;68.43
52975;BME280;38839;45.186;5.720;2023-01-16T08:57:10;97470.66;;;7.33;68.24
52975;BME280;38839;45.186;5.720;2023-01-16T08:59:35;97481.03;;;7.33;67.58
52975;BME280;38839;45.186;5.720;2023-01-16T09:02:02;97466.41;;;7.29;66.66
52975;BME280;38839;45.186;5.720;2023-01-16T09:04:29;97464.44;;;7.43;66.14
52975;BME280;38839;45.186;5.720;2023-01-16T09:06:54;97447.09;;;7.45;66.29
52975;BME280;38839;45.186;5.720;2023-01-16T09:09:20;97448.06;;;7.39;65.83
52975;BME280;38839;45.186;5.720;2023-01-16T09:11:45;97431.44;;;7.48;66.22
52975;BME280;38839;45.186;5.720;2023-01-16T09:14:29;97447.72;;;7.56;65.38
52975;BME280;38839;45.186;5.720;2023-01-16T09:16:54;97450.19;;;7.64;64.88
52975;BME280;38839;45.186;5.720;2023-01-16T09:19:20;97441.50;;;7.66;64.48
52975;BME280;38839;45.186;5.720;2023-01-16T09:21:45;97444.69;;;7.81;64.25
52975;BME280;38839;45.186;5.720;2023-01-16T09:24:11;97441.00;;;7.91;63.97
52975;BME280;38839;45.186;5.720;2023-01-16T09:26:36;97441.78;;;7.96;63.71
52975;BME280;38839;45.186;5.720;2023-01-16T09:29:02;97445.13;;;8.01;63.79
52975;BME280;38839;45.186;5.720;2023-01-16T09:31:27;97451.94;;;8.09;63.06
52975;BME280;38839;45.186;5.720;2023-01-16T09:33:52;97433.91;;;7.99;62.71
52975;BME280;38839;45.186;5.720;2023-01-16T09:36:20;97430.56;;;7.94;62.92
52975;BME280;38839;45.186;5.720;2023-01-16T09:38:45;97426.00;;;8.05;62.05
52975;BME280;38839;45.186;5.720;2023-01-16T09:41:15;97408.69;;;8.06;62.04
52975;BME280;38839;45.186;5.720;2023-01-16T09:44:00;97413.50;;;8.24;61.60
52975;BME280;38839;45.186;5.720;2023-01-16T09:46:29;97403.50;;;8.46;61.26
52975;BME280;38839;45.186;5.720;2023-01-16T09:49:10;97409.69;;;8.39;61.06
52975;BME280;38839;45.186;5.720;2023-01-16T09:51:43;97407.16;;;8.36;60.97
52975;BME280;38839;45.186;5.720;2023-01-16T09:54:33;97412.75;;;8.18;60.21
52975;BME280;38839;45.186;5.720;2023-01-16T09:57:19;97413.41;;;8.27;60.44
52975;BME280;38839;45.186;5.720;2023-01-16T10:00:04;97413.56;;;8.20;60.65
52975;BME280;38839;45.186;5.720;2023-01-16T10:02:33;97409.81;;;8.35;60.28
52975;BME280;38839;45.186;5.720;2023-01-16T10:05:01;97392.38;;;8.38;59.71
52975;BME280;38839;45.186;5.720;2023-01-16T10:07:58;97398.25;;;8.50;59.03
52975;BME280;38839;45.186;5.720;2023-01-16T10:10:45;97392.47;;;8.74;58.86
52975;BME280;38839;45.186;5.720;2023-01-16T10:26:57;97358.09;;;8.97;57.20
52975;BME280;38839;45.186;5.720;2023-01-16T10:32:35;97342.66;;;8.90;56.13
52975;BME280;38839;45.186;5.720;2023-01-16T10:37:36;97343.91;;;9.42;56.30
52975;BME280;38839;45.186;5.720;2023-01-16T10:40:23;97343.47;;;9.57;55.45
52975;BME280;38839;45.186;5.720;2023-01-16T10:43:04;97332.81;;;9.66;55.06
52975;BME280;38839;45.186;5.720;2023-01-16T10:45:54;97330.47;;;9.87;54.64
52975;BME280;38839;45.186;5.720;2023-01-16T10:48:38;97332.06;;;9.93;54.45
52975;BME280;38839;45.186;5.720;2023-01-16T10:51:22;97316.16;;;10.00;54.34
52975;BME280;38839;45.186;5.720;2023-01-16T10:53:48;97305.59;;;9.77;54.62
52975;BME280;38839;45.186;5.720;2023-01-16T10:56:13;97310.19;;;9.69;55.07
52975;BME280;38839;45.186;5.720;2023-01-16T10:58:38;97299.09;;;9.62;54.67
52975;BME280;38839;45.186;5.720;2023-01-16T11:01:15;97289.84;;;9.81;54.75
52975;BME280;38839;45.186;5.720;2023-01-16T11:03:47;97283.03;;;9.76;54.54
52975;BME280;38839;45.186;5.720;2023-01-16T11:06:15;97294.09;;;9.84;54.66
52975;BME280;38839;45.186;5.720;2023-01-16T11:08:44;97288.97;;;9.81;54.31
52975;BME280;38839;45.186;5.720;2023-01-16T11:11:13;97264.69;;;10.08;53.44
52975;BME280;38839;45.186;5.720;2023-01-16T11:14:09;97259.53;;;10.07;52.93
52975;BME280;38839;45.186;5.720;2023-01-16T11:16:54;97252.25;;;10.17;52.68
52975;BME280;38839;45.186;5.720;2023-01-16T11:19:43;97247.69;;;9.97;52.63
52975;BME280;38839;45.186;5.720;2023-01-16T11:22:24;97256.28;;;10.27;52.40
52975;BME280;38839;45.186;5.720;2023-01-16T11:24:58;97238.84;;;10.29;52.37
52975;BME280;38839;45.186;5.720;2023-01-16T11:27:37;97245.41;;;10.42;52.25
52975;BME280;38839;45.186;5.720;2023-01-16T11:30:06;97247.44;;;10.59;52.04
52975;BME280;38839;45.186;5.720;2023-01-16T11:32:35;97231.66;;;10.37;52.15
52975;BME280;38839;45.186;5.720;2023-01-16T11:35:11;97238.72;;;10.60;51.42
52975;BME280;38839;45.186;5.720;2023-01-16T11:37:38;97230.94;;;10.59;51.62
52975;BME280;38839;45.186;5.720;2023-01-16T11:40:04;97210.41;;;10.75;51.83
52975;BME280;38839;45.186;5.720;2023-01-16T11:42:32;97211.25;;;10.75;51.55
52975;BME280;38839;45.186;5.720;2023-01-16T11:45:19;97205.81;;;10.81;51.31
52975;BME280;38839;45.186;5.720;2023-01-16T11:48:06;97201.88;;;10.70;51.53
52975;BME280;38839;45.186;5.720;2023-01-16T11:50:50;97207.84;;;10.73;51.24
52975;BME280;38839;45.186;5.720;2023-01-16T11:53:16;97202.56;;;11.00;50.98
52975;BME280;38839;45.186;5.720;2023-01-16T12:04:43;97167.41;;;11.78;44.71
52975;BME280;38839;45.186;5.720;2023-01-16T12:07:38;97166.84;;;12.14;45.87
52975;BME280;38839;45.186;5.720;2023-01-16T12:13:12;97173.59;;;12.19;45.00
52975;BME280;38839;45.186;5.720;2023-01-16T12:16:20;97159.03;;;12.34;44.24
52975;BME280;38839;45.186;5.720;2023-01-16T12:19:17;97160.84;;;12.73;44.37
52975;BME280;38839;45.186;5.720;2023-01-16T12:22:16;97160.00;;;12.73;43.48
52975;BME280;38839;45.186;5.720;2023-01-16T12:24:49;97137.81;;;12.81;43.15
52975;BME280;38839;45.186;5.720;2023-01-16T12:27:42;97148.81;;;12.69;41.42
52975;BME280;38839;45.186;5.720;2023-01-16T12:33:13;97128.34;;;12.98;42.08
52975;BME280;38839;45.186;5.720;2023-01-16T12:35:59;97124.47;;;12.67;43.25
52975;BME280;38839;45.186;5.720;2023-01-16T12:41:17;97123.03;;;12.20;43.07
52975;BME280;38839;45.186;5.720;2023-01-16T12:49:35;97121.84;;;11.41;43.37
52975;BME280;38839;45.186;5.720;2023-01-16T12:52:13;97105.00;;;11.48;43.15
52975;BME280;38839;45.186;5.720;2023-01-16T12:57:39;97110.47;;;11.42;43.76
52975;BME280;38839;45.186;5.720;2023-01-16T13:00:15;97106.19;;;11.41;44.00
52975;BME280;38839;45.186;5.720;2023-01-16T13:02:59;97101.16;;;11.36;43.71
52975;BME280;38839;45.186;5.720;2023-01-16T13:05:31;97095.53;;;11.23;44.21
52975;BME280;38839;45.186;5.720;2023-01-16T13:08:02;97101.19;;;11.13;44.31
52975;BME280;38839;45.186;5.720;2023-01-16T13:10:33;97097.50;;;10.95;44.44
52975;BME280;38839;45.186;5.720;2023-01-16T13:13:22;97078.22;;;10.99;44.32
52975;BME280;38839;45.186;5.720;2023-01-16T13:16:02;97074.72;;;11.00;43.37
52975;BME280;38839;45.186;5.720;2023-01-16T13:18:46;97087.06;;;10.95;43.68
52975;BME280;38839;45.186;5.720;2023-01-16T13:21:19;97083.66;;;10.93;43.73
52975;BME280;38839;45.186;5.720;2023-01-16T13:23:52;97080.03;;;10.97;43.74
52975;BME280;38839;45.186;5.720;2023-01-16T13:26:20;97080.50;;;10.84;43.50
52975;BME280;38839;45.186;5.720;2023-01-16T13:31:27;97085.47;;;10.91;44.16
52975;BME280;38839;45.186;5.720;2023-01-16T13:34:01;97078.56;;;10.90;44.00
52975;BME280;38839;45.186;5.720;2023-01-16T13:39:43;97090.31;;;10.78;43.51
52975;BME280;38839;45.186;5.720;2023-01-16T13:42:11;97067.28;;;10.89;43.48
52975;BME280;38839;45.186;5.720;2023-01-16T13:44:42;97078.81;;;10.83;43.96
52975;BME280;38839;45.186;5.720;2023-01-16T13:47:31;97085.72;;;10.84;43.92
52975;BME280;38839;45.186;5.720;2023-01-16T13:50:07;97077.88;;;10.84;43.84
52975;BME280;38839;45.186;5.720;2023-01-16T13:52:41;97088.72;;;10.74;43.83
52975;BME280;38839;45.186;5.720;2023-01-16T13:55:20;97091.81;;;10.60;43.99
52975;BME280;38839;45.186;5.720;2023-01-16T13:57:48;97088.19;;;10.64;43.91
52975;BME280;38839;45.186;5.720;2023-01-16T14:00:18;97071.72;;;10.63;43.97
52975;BME280;38839;45.186;5.720;2023-01-16T14:02:45;97072.31;;;10.70;43.71
52975;BME280;38839;45.186;5.720;2023-01-16T14:05:21;97095.56;;;10.76;43.63
52975;BME280;38839;45.186;5.720;2023-01-16T14:08:20;97093.53;;;10.61;43.54
52975;BME280;38839;45.186;5.720;2023-01-16T14:17:09;97078.13;;;10.55;44.60
52975;BME280;38839;45.186;5.720;2023-01-16T14:22:23;97068.22;;;10.39;44.89
52975;BME280;38839;45.186;5.720;2023-01-16T14:24:54;97076.81;;;10.43;44.72
52975;BME280;38839;45.186;5.720;2023-01-16T14:27:24;97086.34;;;10.44;45.19
52975;BME280;38839;45.186;5.720;2023-01-16T14:30:02;97088.94;;;10.44;45.36
52975;BME280;38839;45.186;5.720;2023-01-16T14:32:29;97076.00;;;10.41;45.70
52975;BME280;38839;45.186;5.720;2023-01-16T14:35:43;97072.94;;;10.30;46.13
52975;BME280;38839;45.186;5.720;2023-01-16T14:37:56;97077.19;;;10.32;46.14
52975;BME280;38839;45.186;5.720;2023-01-16T14:40:25;97077.47;;;10.23;46.43
52975;BME280;38839;45.186;5.720;2023-01-16T14:43:15;97084.22;;;10.30;46.05
52975;BME280;38839;45.186;5.720;2023-01-16T14:49:39;97077.31;;;10.27;47.93
52975;BME280;38839;45.186;5.720;2023-01-16T14:52:45;97081.63;;;10.28;47.28
52975;BME280;38839;45.186;5.720;2023-01-16T14:56:04;97081.66;;;10.27;48.02
52975;BME280;38839;45.186;5.720;2023-01-16T14:58:45;97086.28;;;10.19;48.25
52975;BME280;38839;45.186;5.720;2023-01-16T15:01:45;97090.81;;;10.14;48.48
52975;BME280;38839;45.186;5.720;2023-01-16T15:05:12;97092.47;;;10.16;48.43
52975;BME280;38839;45.186;5.720;2023-01-16T15:12:40;97086.50;;;10.13;48.93
52975;BME280;38839;45.186;5.720;2023-01-16T15:17:43;97088.53;;;10.04;49.91
52975;BME280;38839;45.186;5.720;2023-01-16T15:20:29;97095.41;;;10.07;50.51
52975;BME280;38839;45.186;5.720;2023-01-16T15:23:32;97099.81;;;10.05;50.91
52975;BME280;38839;45.186;5.720;2023-01-16T15:32:14;97108.38;;;9.82;51.37